sensor_id;sensor_type;location;lat;lon;timestamp;temperature;humidity
2721;DHT22;1368;49.484;11.112;2022-10-16T00:01:25;18.30;99.90
2721;DHT22;1368;49.484;11.112;2022-10-16T00:03:51;18.00;99.90
2721;DHT22;1368;49.484;11.112;2022-10-16T00:06:20;17.80;99.90
2721;DHT22;1368;49.484;11.112;2022-10-16T00:08:46;18.30;99.90
2721;DHT22;1368;49.484;11.112;2022-10-16T00:11:22;18.40;99.90
2721;DHT22;1368;49.484;11.112;2022-10-16T00:13:50;18.30;99.90
2721;DHT22;1368;49.484;11.112;2022-10-16T00:16:16;18.40;99.90
2721;DHT22;1368;49.484;11.112;2022-10-16T00:18:42;18.30;99.90
2721;DHT22;1368;49.484;11.112;2022-10-16T00:21:10;18.00;99.90
2721;DHT22;1368;49.484;11.112;2022-10-16T00:23:36;18.20;99.90
2721;DHT22;1368;49.484;11.112;2022-10-16T00:26:04;18.30;99.90
2721;DHT22;1368;49.484;11.112;2022-10-16T00:28:30;18.30;99.90
2721;DHT22;1368;49.484;11.112;2022-10-16T00:30:57;18.40;99.90
2721;DHT22;1368;49.484;11.112;2022-10-16T00:33:22;18.60;99.90
2721;DHT22;1368;49.484;11.112;2022-10-16T00:35:48;18.50;99.90
2721;DHT22;1368;49.484;11.112;2022-10-16T00:38:14;18.50;99.90
2721;DHT22;1368;49.484;11.112;2022-10-16T00:40:40;18.40;99.90
2721;DHT22;1368;49.484;11.112;2022-10-16T00:43:14;18.40;99.90
2721;DHT22;1368;49.484;11.112;2022-10-16T00:45:57;18.60;99.90
2721;DHT22;1368;49.484;11.112;2022-10-16T00:48:22;18.50;99.90
2721;DHT22;1368;49.484;11.112;2022-10-16T00:50:48;18.20;99.90
2721;DHT22;1368;49.484;11.112;2022-10-16T00:53:14;18.10;99.90
2721;DHT22;1368;49.484;11.112;2022-10-16T00:55:41;18.00;99.90
2721;DHT22;1368;49.484;11.112;2022-10-16T00:58:06;18.20;99.90
2721;DHT22;1368;49.484;11.112;2022-10-16T01:00:32;18.60;99.90
2721;DHT22;1368;49.484;11.112;2022-10-16T01:02:59;18.60;99.90
2721;DHT22;1368;49.484;11.112;2022-10-16T01:05:33;18.20;99.90
2721;DHT22;1368;49.484;11.112;2022-10-16T01:08:12;18.40;99.90
2721;DHT22;1368;49.484;11.112;2022-10-16T01:13:21;18.30;99.90
2721;DHT22;1368;49.484;11.112;2022-10-16T01:16:19;18.20;99.90
2721;DHT22;1368;49.484;11.112;2022-10-16T01:18:46;17.70;99.90
2721;DHT22;1368;49.484;11.112;2022-10-16T01:21:18;17.70;99.90
2721;DHT22;1368;49.484;11.112;2022-10-16T01:24:14;17.80;99.90
2721;DHT22;1368;49.484;11.112;2022-10-16T01:27:26;18.00;99.90
2721;DHT22;1368;49.484;11.112;2022-10-16T01:29:31;18.10;99.90
2721;DHT22;1368;49.484;11.112;2022-10-16T01:32:04;18.50;99.90
2721;DHT22;1368;49.484;11.112;2022-10-16T01:34:48;18.20;99.90
2721;DHT22;1368;49.484;11.112;2022-10-16T01:37:18;17.80;99.90
2721;DHT22;1368;49.484;11.112;2022-10-16T01:39:47;17.80;99.90
2721;DHT22;1368;49.484;11.112;2022-10-16T01:42:22;17.80;99.90
2721;DHT22;1368;49.484;11.112;2022-10-16T01:44:51;17.90;99.90
2721;DHT22;1368;49.484;11.112;2022-10-16T01:47:20;17.60;99.90
2721;DHT22;1368;49.484;11.112;2022-10-16T01:49:47;17.30;99.90
2721;DHT22;1368;49.484;11.112;2022-10-16T01:52:17;17.10;99.90
2721;DHT22;1368;49.484;11.112;2022-10-16T01:54:47;16.90;99.90
2721;DHT22;1368;49.484;11.112;2022-10-16T01:57:14;17.00;99.90
2721;DHT22;1368;49.484;11.112;2022-10-16T01:59:49;16.90;99.90
2721;DHT22;1368;49.484;11.112;2022-10-16T02:02:17;16.80;99.90
2721;DHT22;1368;49.484;11.112;2022-10-16T02:04:49;16.60;99.90
2721;DHT22;1368;49.484;11.112;2022-10-16T02:07:18;16.70;99.90
2721;DHT22;1368;49.484;11.112;2022-10-16T02:09:44;16.70;99.90
2721;DHT22;1368;49.484;11.112;2022-10-16T02:12:15;17.40;99.90
2721;DHT22;1368;49.484;11.112;2022-10-16T02:14:43;16.90;99.90
2721;DHT22;1368;49.484;11.112;2022-10-16T02:17:17;16.90;99.90
2721;DHT22;1368;49.484;11.112;2022-10-16T02:19:44;16.70;99.90
2721;DHT22;1368;49.484;11.112;2022-10-16T02:22:17;16.80;99.90
2721;DHT22;1368;49.484;11.112;2022-10-16T02:24:56;16.90;99.90
2721;DHT22;1368;49.484;11.112;2022-10-16T02:30:03;16.90;99.90
2721;DHT22;1368;49.484;11.112;2022-10-16T02:32:34;17.00;99.90
2721;DHT22;1368;49.484;11.112;2022-10-16T02:35:01;17.10;99.90
2721;DHT22;1368;49.484;11.112;2022-10-16T02:37:28;17.60;99.90
2721;DHT22;1368;49.484;11.112;2022-10-16T02:39:55;17.20;99.90
2721;DHT22;1368;49.484;11.112;2022-10-16T02:42:21;17.30;99.90
2721;DHT22;1368;49.484;11.112;2022-10-16T02:44:52;17.50;99.90
2721;DHT22;1368;49.484;11.112;2022-10-16T02:47:18;17.40;99.90
2721;DHT22;1368;49.484;11.112;2022-10-16T02:49:43;17.40;99.90
2721;DHT22;1368;49.484;11.112;2022-10-16T02:52:09;17.10;99.90
2721;DHT22;1368;49.484;11.112;2022-10-16T02:54:34;17.20;99.90
2721;DHT22;1368;49.484;11.112;2022-10-16T02:57:00;17.70;99.90
2721;DHT22;1368;49.484;11.112;2022-10-16T02:59:25;17.10;99.90
2721;DHT22;1368;49.484;11.112;2022-10-16T03:01:51;17.10;99.90
2721;DHT22;1368;49.484;11.112;2022-10-16T03:04:16;17.10;99.90
2721;DHT22;1368;49.484;11.112;2022-10-16T03:06:42;17.10;99.90
2721;DHT22;1368;49.484;11.112;2022-10-16T03:09:07;17.10;99.90
2721;DHT22;1368;49.484;11.112;2022-10-16T03:11:33;17.30;99.90
2721;DHT22;1368;49.484;11.112;2022-10-16T03:13:58;16.70;99.90
2721;DHT22;1368;49.484;11.112;2022-10-16T03:16:24;16.80;99.90
2721;DHT22;1368;49.484;11.112;2022-10-16T03:18:50;17.40;99.90
2721;DHT22;1368;49.484;11.112;2022-10-16T03:21:16;18.00;99.90
2721;DHT22;1368;49.484;11.112;2022-10-16T03:23:42;17.90;99.90
2721;DHT22;1368;49.484;11.112;2022-10-16T03:26:07;17.50;99.90
2721;DHT22;1368;49.484;11.112;2022-10-16T03:28:33;17.40;99.90
2721;DHT22;1368;49.484;11.112;2022-10-16T03:30:58;17.70;99.90
2721;DHT22;1368;49.484;11.112;2022-10-16T03:33:24;17.70;99.90
2721;DHT22;1368;49.484;11.112;2022-10-16T03:35:54;17.20;99.90
2721;DHT22;1368;49.484;11.112;2022-10-16T03:38:20;17.20;99.90
2721;DHT22;1368;49.484;11.112;2022-10-16T03:40:46;17.40;99.90
2721;DHT22;1368;49.484;11.112;2022-10-16T03:43:12;17.40;99.90
2721;DHT22;1368;49.484;11.112;2022-10-16T03:45:37;17.40;99.90
2721;DHT22;1368;49.484;11.112;2022-10-16T03:48:03;17.30;99.90
2721;DHT22;1368;49.484;11.112;2022-10-16T03:50:29;17.10;99.90
2721;DHT22;1368;49.484;11.112;2022-10-16T03:52:55;16.90;99.90
2721;DHT22;1368;49.484;11.112;2022-10-16T03:55:20;16.60;99.90
2721;DHT22;1368;49.484;11.112;2022-10-16T03:57:46;16.70;99.90
2721;DHT22;1368;49.484;11.112;2022-10-16T04:00:12;16.60;99.90
2721;DHT22;1368;49.484;11.112;2022-10-16T04:02:37;16.70;99.90
2721;DHT22;1368;49.484;11.112;2022-10-16T04:05:03;17.00;99.90
2721;DHT22;1368;49.484;11.112;2022-10-16T04:07:29;17.10;99.90
2721;DHT22;1368;49.484;11.112;2022-10-16T04:09:55;17.00;99.90
2721;DHT22;1368;49.484;11.112;2022-10-16T04:12:20;16.90;99.90
2721;DHT22;1368;49.484;11.112;2022-10-16T04:14:46;16.90;99.90
2721;DHT22;1368;49.484;11.112;2022-10-16T04:17:12;17.00;99.90
2721;DHT22;1368;49.484;11.112;2022-10-16T04:19:37;17.00;99.90
2721;DHT22;1368;49.484;11.112;2022-10-16T04:22:03;17.20;99.90
2721;DHT22;1368;49.484;11.112;2022-10-16T04:24:28;17.30;99.90
2721;DHT22;1368;49.484;11.112;2022-10-16T04:26:54;17.20;99.90
2721;DHT22;1368;49.484;11.112;2022-10-16T04:29:19;17.30;99.90
2721;DHT22;1368;49.484;11.112;2022-10-16T04:31:45;17.10;99.90
2721;DHT22;1368;49.484;11.112;2022-10-16T04:34:10;16.90;99.90
2721;DHT22;1368;49.484;11.112;2022-10-16T04:36:36;16.80;99.90
2721;DHT22;1368;49.484;11.112;2022-10-16T04:39:01;16.90;99.90
2721;DHT22;1368;49.484;11.112;2022-10-16T04:41:27;16.90;99.90
2721;DHT22;1368;49.484;11.112;2022-10-16T04:43:52;17.00;99.90
2721;DHT22;1368;49.484;11.112;2022-10-16T04:46:18;16.90;99.90
2721;DHT22;1368;49.484;11.112;2022-10-16T04:48:43;16.80;99.90
2721;DHT22;1368;49.484;11.112;2022-10-16T04:51:09;16.60;99.90
2721;DHT22;1368;49.484;11.112;2022-10-16T04:53:35;16.60;99.90
2721;DHT22;1368;49.484;11.112;2022-10-16T04:56:00;16.80;99.90
2721;DHT22;1368;49.484;11.112;2022-10-16T04:58:26;16.80;99.90
2721;DHT22;1368;49.484;11.112;2022-10-16T05:00:51;17.20;99.90
2721;DHT22;1368;49.484;11.112;2022-10-16T05:03:17;17.20;99.90
2721;DHT22;1368;49.484;11.112;2022-10-16T05:05:44;16.50;99.90
2721;DHT22;1368;49.484;11.112;2022-10-16T05:08:10;16.50;99.90
2721;DHT22;1368;49.484;11.112;2022-10-16T05:10:36;16.70;99.90
2721;DHT22;1368;49.484;11.112;2022-10-16T05:13:01;17.10;99.90
2721;DHT22;1368;49.484;11.112;2022-10-16T05:15:27;17.10;99.90
2721;DHT22;1368;49.484;11.112;2022-10-16T05:17:54;17.10;99.90
2721;DHT22;1368;49.484;11.112;2022-10-16T05:20:21;17.00;99.90
2721;DHT22;1368;49.484;11.112;2022-10-16T05:22:46;17.10;99.90
2721;DHT22;1368;49.484;11.112;2022-10-16T05:25:12;17.20;99.90
2721;DHT22;1368;49.484;11.112;2022-10-16T05:27:37;16.80;99.90
2721;DHT22;1368;49.484;11.112;2022-10-16T05:30:03;16.80;99.90
2721;DHT22;1368;49.484;11.112;2022-10-16T05:32:29;16.90;99.90
2721;DHT22;1368;49.484;11.112;2022-10-16T05:34:54;17.10;99.90
2721;DHT22;1368;49.484;11.112;2022-10-16T05:37:20;16.80;99.90
2721;DHT22;1368;49.484;11.112;2022-10-16T05:39:45;17.00;99.90
2721;DHT22;1368;49.484;11.112;2022-10-16T05:42:11;17.10;99.90
2721;DHT22;1368;49.484;11.112;2022-10-16T05:44:36;17.30;99.90
2721;DHT22;1368;49.484;11.112;2022-10-16T05:47:02;17.30;99.90
2721;DHT22;1368;49.484;11.112;2022-10-16T05:49:27;17.40;99.90
2721;DHT22;1368;49.484;11.112;2022-10-16T05:51:53;17.50;99.90
2721;DHT22;1368;49.484;11.112;2022-10-16T05:54:18;17.50;99.90
2721;DHT22;1368;49.484;11.112;2022-10-16T05:56:44;18.00;99.90
2721;DHT22;1368;49.484;11.112;2022-10-16T05:59:10;17.70;99.90
2721;DHT22;1368;49.484;11.112;2022-10-16T06:01:35;17.90;99.90
2721;DHT22;1368;49.484;11.112;2022-10-16T06:04:01;17.60;99.90
2721;DHT22;1368;49.484;11.112;2022-10-16T06:06:27;18.20;99.90
2721;DHT22;1368;49.484;11.112;2022-10-16T06:08:54;17.70;99.90
2721;DHT22;1368;49.484;11.112;2022-10-16T06:11:22;17.80;99.90
2721;DHT22;1368;49.484;11.112;2022-10-16T06:13:52;17.60;99.90
2721;DHT22;1368;49.484;11.112;2022-10-16T06:16:18;17.50;99.90
2721;DHT22;1368;49.484;11.112;2022-10-16T06:18:44;17.60;99.90
2721;DHT22;1368;49.484;11.112;2022-10-16T06:21:16;17.70;99.90
2721;DHT22;1368;49.484;11.112;2022-10-16T06:23:42;17.80;99.90
2721;DHT22;1368;49.484;11.112;2022-10-16T06:26:10;18.00;99.90
2721;DHT22;1368;49.484;11.112;2022-10-16T06:28:36;18.10;99.90
2721;DHT22;1368;49.484;11.112;2022-10-16T06:31:03;18.10;99.90
2721;DHT22;1368;49.484;11.112;2022-10-16T06:33:28;18.00;99.90
2721;DHT22;1368;49.484;11.112;2022-10-16T06:36:00;18.00;99.90
2721;DHT22;1368;49.484;11.112;2022-10-16T06:38:26;17.90;99.90
2721;DHT22;1368;49.484;11.112;2022-10-16T06:40:53;18.40;99.90
2721;DHT22;1368;49.484;11.112;2022-10-16T06:43:19;18.20;99.90
2721;DHT22;1368;49.484;11.112;2022-10-16T06:45:53;18.90;99.90
2721;DHT22;1368;49.484;11.112;2022-10-16T06:48:19;19.20;99.90
2721;DHT22;1368;49.484;11.112;2022-10-16T06:50:58;19.90;99.90
2721;DHT22;1368;49.484;11.112;2022-10-16T06:53:24;20.30;99.90
2721;DHT22;1368;49.484;11.112;2022-10-16T06:55:50;20.50;99.90
2721;DHT22;1368;49.484;11.112;2022-10-16T06:58:16;20.20;99.90
2721;DHT22;1368;49.484;11.112;2022-10-16T07:00:41;19.80;99.90
2721;DHT22;1368;49.484;11.112;2022-10-16T07:03:07;19.40;99.90
2721;DHT22;1368;49.484;11.112;2022-10-16T07:05:37;19.40;99.90
2721;DHT22;1368;49.484;11.112;2022-10-16T07:08:03;19.60;99.90
2721;DHT22;1368;49.484;11.112;2022-10-16T07:10:31;19.50;99.90
2721;DHT22;1368;49.484;11.112;2022-10-16T07:12:56;18.90;99.90
2721;DHT22;1368;49.484;11.112;2022-10-16T07:15:22;18.90;99.90
2721;DHT22;1368;49.484;11.112;2022-10-16T07:17:47;19.10;99.90
2721;DHT22;1368;49.484;11.112;2022-10-16T07:20:13;19.30;99.90
2721;DHT22;1368;49.484;11.112;2022-10-16T07:22:38;19.30;99.90
2721;DHT22;1368;49.484;11.112;2022-10-16T07:25:04;19.10;99.90
2721;DHT22;1368;49.484;11.112;2022-10-16T07:27:30;18.70;99.90
2721;DHT22;1368;49.484;11.112;2022-10-16T07:29:55;18.60;99.90
2721;DHT22;1368;49.484;11.112;2022-10-16T07:32:21;19.10;99.90
2721;DHT22;1368;49.484;11.112;2022-10-16T07:34:46;18.90;99.90
2721;DHT22;1368;49.484;11.112;2022-10-16T07:37:12;19.10;99.90
2721;DHT22;1368;49.484;11.112;2022-10-16T07:39:38;19.10;99.90
2721;DHT22;1368;49.484;11.112;2022-10-16T07:42:03;19.00;99.90
2721;DHT22;1368;49.484;11.112;2022-10-16T07:44:29;19.10;99.90
2721;DHT22;1368;49.484;11.112;2022-10-16T07:46:54;18.90;99.90
2721;DHT22;1368;49.484;11.112;2022-10-16T07:49:20;18.70;99.90
2721;DHT22;1368;49.484;11.112;2022-10-16T07:51:45;18.60;99.90
2721;DHT22;1368;49.484;11.112;2022-10-16T07:54:11;18.70;99.90
2721;DHT22;1368;49.484;11.112;2022-10-16T07:56:36;18.70;99.90
2721;DHT22;1368;49.484;11.112;2022-10-16T07:59:02;18.60;99.90
2721;DHT22;1368;49.484;11.112;2022-10-16T08:01:28;18.60;99.90
2721;DHT22;1368;49.484;11.112;2022-10-16T08:03:53;18.60;99.90
2721;DHT22;1368;49.484;11.112;2022-10-16T08:06:20;18.70;99.90
2721;DHT22;1368;49.484;11.112;2022-10-16T08:08:46;19.40;99.90
2721;DHT22;1368;49.484;11.112;2022-10-16T08:11:13;19.20;99.90
2721;DHT22;1368;49.484;11.112;2022-10-16T08:13:40;19.50;99.90
2721;DHT22;1368;49.484;11.112;2022-10-16T08:16:06;19.60;99.90
2721;DHT22;1368;49.484;11.112;2022-10-16T08:18:37;19.60;99.90
2721;DHT22;1368;49.484;11.112;2022-10-16T08:21:03;19.50;99.90
2721;DHT22;1368;49.484;11.112;2022-10-16T08:23:29;19.60;99.90
2721;DHT22;1368;49.484;11.112;2022-10-16T08:25:56;19.70;99.90
2721;DHT22;1368;49.484;11.112;2022-10-16T08:28:26;19.80;99.90
2721;DHT22;1368;49.484;11.112;2022-10-16T08:30:52;19.90;99.90
2721;DHT22;1368;49.484;11.112;2022-10-16T08:33:17;20.00;99.90
2721;DHT22;1368;49.484;11.112;2022-10-16T08:35:50;19.80;99.90
2721;DHT22;1368;49.484;11.112;2022-10-16T08:38:16;19.70;99.90
2721;DHT22;1368;49.484;11.112;2022-10-16T08:40:42;19.60;99.90
2721;DHT22;1368;49.484;11.112;2022-10-16T08:43:23;20.10;99.90
2721;DHT22;1368;49.484;11.112;2022-10-16T08:49:08;20.30;99.90
2721;DHT22;1368;49.484;11.112;2022-10-16T08:51:36;20.20;99.90
2721;DHT22;1368;49.484;11.112;2022-10-16T08:54:32;20.10;99.90
2721;DHT22;1368;49.484;11.112;2022-10-16T08:57:12;20.20;99.90
2721;DHT22;1368;49.484;11.112;2022-10-16T08:59:38;20.40;99.90
2721;DHT22;1368;49.484;11.112;2022-10-16T09:07:38;21.30;99.90
2721;DHT22;1368;49.484;11.112;2022-10-16T09:10:26;21.20;99.90
2721;DHT22;1368;49.484;11.112;2022-10-16T09:13:19;21.40;99.90
2721;DHT22;1368;49.484;11.112;2022-10-16T09:18:55;21.80;99.90
2721;DHT22;1368;49.484;11.112;2022-10-16T09:21:26;21.50;99.90
2721;DHT22;1368;49.484;11.112;2022-10-16T09:23:56;21.50;99.90
2721;DHT22;1368;49.484;11.112;2022-10-16T09:26:23;21.80;99.90
2721;DHT22;1368;49.484;11.112;2022-10-16T09:28:48;22.30;99.90
2721;DHT22;1368;49.484;11.112;2022-10-16T09:31:19;22.10;99.90
2721;DHT22;1368;49.484;11.112;2022-10-16T09:33:50;22.00;99.90
2721;DHT22;1368;49.484;11.112;2022-10-16T09:36:18;22.10;99.90
2721;DHT22;1368;49.484;11.112;2022-10-16T09:38:43;22.50;99.90
2721;DHT22;1368;49.484;11.112;2022-10-16T09:41:35;22.70;99.90
2721;DHT22;1368;49.484;11.112;2022-10-16T09:44:04;22.80;99.90
2721;DHT22;1368;49.484;11.112;2022-10-16T09:46:35;22.70;99.90
2721;DHT22;1368;49.484;11.112;2022-10-16T09:49:04;22.40;99.90
2721;DHT22;1368;49.484;11.112;2022-10-16T09:51:32;22.40;99.90
2721;DHT22;1368;49.484;11.112;2022-10-16T09:54:18;22.60;99.90
2721;DHT22;1368;49.484;11.112;2022-10-16T09:56:44;22.20;99.90
2721;DHT22;1368;49.484;11.112;2022-10-16T09:59:16;22.40;99.90
2721;DHT22;1368;49.484;11.112;2022-10-16T10:01:49;22.20;99.90
2721;DHT22;1368;49.484;11.112;2022-10-16T10:04:16;22.20;99.90
2721;DHT22;1368;49.484;11.112;2022-10-16T10:06:53;22.10;99.90
2721;DHT22;1368;49.484;11.112;2022-10-16T10:14:25;22.60;99.90
2721;DHT22;1368;49.484;11.112;2022-10-16T10:17:01;22.60;99.90
2721;DHT22;1368;49.484;11.112;2022-10-16T10:19:28;22.80;99.90
2721;DHT22;1368;49.484;11.112;2022-10-16T10:21:53;22.90;99.90
2721;DHT22;1368;49.484;11.112;2022-10-16T10:24:19;22.80;99.90
2721;DHT22;1368;49.484;11.112;2022-10-16T10:26:57;23.20;99.90
2721;DHT22;1368;49.484;11.112;2022-10-16T10:29:46;23.30;99.90
2721;DHT22;1368;49.484;11.112;2022-10-16T10:32:31;23.50;99.90
2721;DHT22;1368;49.484;11.112;2022-10-16T10:45:46;24.20;99.90
2721;DHT22;1368;49.484;11.112;2022-10-16T10:51:05;23.90;99.90
2721;DHT22;1368;49.484;11.112;2022-10-16T10:59:32;24.60;99.90
2721;DHT22;1368;49.484;11.112;2022-10-16T11:05:00;25.10;99.90
2721;DHT22;1368;49.484;11.112;2022-10-16T11:07:32;25.10;99.90
2721;DHT22;1368;49.484;11.112;2022-10-16T11:10:05;25.20;99.90
2721;DHT22;1368;49.484;11.112;2022-10-16T11:12:38;25.40;99.90
2721;DHT22;1368;49.484;11.112;2022-10-16T11:15:13;25.50;99.90
2721;DHT22;1368;49.484;11.112;2022-10-16T11:20:26;25.40;99.90
2721;DHT22;1368;49.484;11.112;2022-10-16T11:23:14;25.50;99.90
2721;DHT22;1368;49.484;11.112;2022-10-16T11:25:43;25.80;99.90
2721;DHT22;1368;49.484;11.112;2022-10-16T11:30:47;25.00;99.90
2721;DHT22;1368;49.484;11.112;2022-10-16T11:46:30;25.20;99.90
2721;DHT22;1368;49.484;11.112;2022-10-16T11:49:15;25.20;99.90
2721;DHT22;1368;49.484;11.112;2022-10-16T11:51:48;25.20;99.90
2721;DHT22;1368;49.484;11.112;2022-10-16T11:56:57;25.60;99.90
2721;DHT22;1368;49.484;11.112;2022-10-16T12:02:58;25.30;99.90
2721;DHT22;1368;49.484;11.112;2022-10-16T12:05:39;25.60;99.90
2721;DHT22;1368;49.484;11.112;2022-10-16T12:08:12;25.80;99.90
2721;DHT22;1368;49.484;11.112;2022-10-16T12:10:41;25.80;99.90
2721;DHT22;1368;49.484;11.112;2022-10-16T12:13:36;25.80;99.90
2721;DHT22;1368;49.484;11.112;2022-10-16T12:16:22;25.60;99.90
2721;DHT22;1368;49.484;11.112;2022-10-16T12:18:49;25.70;99.90
2721;DHT22;1368;49.484;11.112;2022-10-16T12:21:15;25.60;99.90
2721;DHT22;1368;49.484;11.112;2022-10-16T12:23:52;25.60;99.90
2721;DHT22;1368;49.484;11.112;2022-10-16T12:26:30;25.40;99.90
2721;DHT22;1368;49.484;11.112;2022-10-16T12:31:45;24.70;99.90
2721;DHT22;1368;49.484;11.112;2022-10-16T12:34:39;24.40;99.90
2721;DHT22;1368;49.484;11.112;2022-10-16T12:37:22;23.70;99.90
2721;DHT22;1368;49.484;11.112;2022-10-16T12:39:49;23.60;99.90
2721;DHT22;1368;49.484;11.112;2022-10-16T12:42:33;23.90;99.90
2721;DHT22;1368;49.484;11.112;2022-10-16T12:45:00;24.10;99.90
2721;DHT22;1368;49.484;11.112;2022-10-16T12:49:57;24.20;99.90
2721;DHT22;1368;49.484;11.112;2022-10-16T12:52:38;24.20;99.90
2721;DHT22;1368;49.484;11.112;2022-10-16T12:55:05;24.00;99.90
2721;DHT22;1368;49.484;11.112;2022-10-16T13:03:39;24.40;99.90
2721;DHT22;1368;49.484;11.112;2022-10-16T13:09:07;24.70;99.90
2721;DHT22;1368;49.484;11.112;2022-10-16T13:15:08;24.90;99.90
2721;DHT22;1368;49.484;11.112;2022-10-16T13:20:25;25.10;99.90
2721;DHT22;1368;49.484;11.112;2022-10-16T13:25:44;25.20;99.90
2721;DHT22;1368;49.484;11.112;2022-10-16T13:28:13;25.50;99.90
2721;DHT22;1368;49.484;11.112;2022-10-16T13:30:53;25.70;99.90
2721;DHT22;1368;49.484;11.112;2022-10-16T13:35:55;25.00;99.90
2721;DHT22;1368;49.484;11.112;2022-10-16T13:38:23;24.40;99.90
2721;DHT22;1368;49.484;11.112;2022-10-16T13:41:03;24.30;99.90
2721;DHT22;1368;49.484;11.112;2022-10-16T13:43:36;24.50;99.90
2721;DHT22;1368;49.484;11.112;2022-10-16T13:48:40;24.60;99.90
2721;DHT22;1368;49.484;11.112;2022-10-16T13:51:13;24.50;99.90
2721;DHT22;1368;49.484;11.112;2022-10-16T13:53:39;24.70;99.90
2721;DHT22;1368;49.484;11.112;2022-10-16T13:56:14;24.60;99.90
2721;DHT22;1368;49.484;11.112;2022-10-16T13:58:40;24.20;99.90
2721;DHT22;1368;49.484;11.112;2022-10-16T14:01:16;23.60;99.90
2721;DHT22;1368;49.484;11.112;2022-10-16T14:03:43;23.50;99.90
2721;DHT22;1368;49.484;11.112;2022-10-16T14:06:19;23.50;99.90
2721;DHT22;1368;49.484;11.112;2022-10-16T14:11:25;23.60;99.90
2721;DHT22;1368;49.484;11.112;2022-10-16T14:13:51;23.90;99.90
2721;DHT22;1368;49.484;11.112;2022-10-16T14:16:25;23.90;99.90
2721;DHT22;1368;49.484;11.112;2022-10-16T14:18:57;23.50;99.90
2721;DHT22;1368;49.484;11.112;2022-10-16T14:21:23;23.30;99.90
2721;DHT22;1368;49.484;11.112;2022-10-16T14:23:49;23.30;99.90
2721;DHT22;1368;49.484;11.112;2022-10-16T14:26:19;23.10;99.90
2721;DHT22;1368;49.484;11.112;2022-10-16T14:28:46;23.50;99.90
2721;DHT22;1368;49.484;11.112;2022-10-16T14:31:32;23.50;99.90
2721;DHT22;1368;49.484;11.112;2022-10-16T14:33:59;23.30;99.90
2721;DHT22;1368;49.484;11.112;2022-10-16T14:36:26;23.20;99.90
2721;DHT22;1368;49.484;11.112;2022-10-16T14:39:02;23.50;99.90
2721;DHT22;1368;49.484;11.112;2022-10-16T14:41:35;23.40;99.90
2721;DHT22;1368;49.484;11.112;2022-10-16T14:44:06;23.50;99.90
2721;DHT22;1368;49.484;11.112;2022-10-16T14:46:36;23.70;99.90
2721;DHT22;1368;49.484;11.112;2022-10-16T14:49:13;23.70;99.90
2721;DHT22;1368;49.484;11.112;2022-10-16T14:51:41;23.70;99.90
2721;DHT22;1368;49.484;11.112;2022-10-16T14:54:09;23.40;99.90
2721;DHT22;1368;49.484;11.112;2022-10-16T14:56:47;23.20;99.90
2721;DHT22;1368;49.484;11.112;2022-10-16T14:59:32;23.10;99.90
2721;DHT22;1368;49.484;11.112;2022-10-16T15:01:58;23.20;99.90
2721;DHT22;1368;49.484;11.112;2022-10-16T15:04:24;23.40;99.90
2721;DHT22;1368;49.484;11.112;2022-10-16T15:06:49;23.50;99.90
2721;DHT22;1368;49.484;11.112;2022-10-16T15:09:15;23.80;99.90
2721;DHT22;1368;49.484;11.112;2022-10-16T15:11:41;23.80;99.90
2721;DHT22;1368;49.484;11.112;2022-10-16T15:14:13;23.90;99.90
2721;DHT22;1368;49.484;11.112;2022-10-16T15:16:39;24.00;99.90
2721;DHT22;1368;49.484;11.112;2022-10-16T15:19:04;24.10;99.90
2721;DHT22;1368;49.484;11.112;2022-10-16T15:21:32;24.10;99.90
2721;DHT22;1368;49.484;11.112;2022-10-16T15:23:58;24.10;99.90
2721;DHT22;1368;49.484;11.112;2022-10-16T15:26:25;24.10;99.90
2721;DHT22;1368;49.484;11.112;2022-10-16T15:28:51;24.00;99.90
2721;DHT22;1368;49.484;11.112;2022-10-16T15:31:17;24.50;99.90
2721;DHT22;1368;49.484;11.112;2022-10-16T15:33:43;23.90;99.90
2721;DHT22;1368;49.484;11.112;2022-10-16T15:36:08;24.10;99.90
2721;DHT22;1368;49.484;11.112;2022-10-16T15:38:34;24.30;99.90
2721;DHT22;1368;49.484;11.112;2022-10-16T15:41:00;23.90;99.90
2721;DHT22;1368;49.484;11.112;2022-10-16T15:43:26;23.80;99.90
2721;DHT22;1368;49.484;11.112;2022-10-16T15:46:06;23.70;99.90
2721;DHT22;1368;49.484;11.112;2022-10-16T15:48:34;23.70;99.90
2721;DHT22;1368;49.484;11.112;2022-10-16T15:51:00;23.60;99.90
2721;DHT22;1368;49.484;11.112;2022-10-16T15:53:29;23.50;99.90
2721;DHT22;1368;49.484;11.112;2022-10-16T15:55:55;23.50;99.90
2721;DHT22;1368;49.484;11.112;2022-10-16T15:58:20;23.80;99.90
2721;DHT22;1368;49.484;11.112;2022-10-16T16:00:57;23.40;99.90
2721;DHT22;1368;49.484;11.112;2022-10-16T16:03:23;23.30;99.90
2721;DHT22;1368;49.484;11.112;2022-10-16T16:05:49;23.30;99.90
2721;DHT22;1368;49.484;11.112;2022-10-16T16:08:15;23.30;99.90
2721;DHT22;1368;49.484;11.112;2022-10-16T16:10:40;23.20;99.90
2721;DHT22;1368;49.484;11.112;2022-10-16T16:13:06;23.10;99.90
2721;DHT22;1368;49.484;11.112;2022-10-16T16:15:32;23.00;99.90
2721;DHT22;1368;49.484;11.112;2022-10-16T16:17:57;23.30;99.90
2721;DHT22;1368;49.484;11.112;2022-10-16T16:20:23;22.90;99.90
2721;DHT22;1368;49.484;11.112;2022-10-16T16:22:48;23.00;99.90
2721;DHT22;1368;49.484;11.112;2022-10-16T16:25:14;22.80;99.90
2721;DHT22;1368;49.484;11.112;2022-10-16T16:27:40;22.80;99.90
2721;DHT22;1368;49.484;11.112;2022-10-16T16:30:06;22.70;99.90
2721;DHT22;1368;49.484;11.112;2022-10-16T16:32:33;22.70;99.90
2721;DHT22;1368;49.484;11.112;2022-10-16T16:34:59;22.60;99.90
2721;DHT22;1368;49.484;11.112;2022-10-16T16:37:25;22.60;99.90
2721;DHT22;1368;49.484;11.112;2022-10-16T16:39:51;22.50;99.90
2721;DHT22;1368;49.484;11.112;2022-10-16T16:42:16;22.90;99.90
2721;DHT22;1368;49.484;11.112;2022-10-16T16:44:42;22.40;99.90
2721;DHT22;1368;49.484;11.112;2022-10-16T16:47:07;22.40;99.90
2721;DHT22;1368;49.484;11.112;2022-10-16T16:49:33;22.40;99.90
2721;DHT22;1368;49.484;11.112;2022-10-16T16:51:58;22.40;99.90
2721;DHT22;1368;49.484;11.112;2022-10-16T16:54:24;22.30;99.90
2721;DHT22;1368;49.484;11.112;2022-10-16T16:56:50;22.80;99.90
2721;DHT22;1368;49.484;11.112;2022-10-16T16:59:21;22.40;99.90
2721;DHT22;1368;49.484;11.112;2022-10-16T17:01:47;22.90;99.90
2721;DHT22;1368;49.484;11.112;2022-10-16T17:04:13;22.50;99.90
2721;DHT22;1368;49.484;11.112;2022-10-16T17:06:40;22.10;99.90
2721;DHT22;1368;49.484;11.112;2022-10-16T17:09:06;22.50;99.90
2721;DHT22;1368;49.484;11.112;2022-10-16T17:11:32;22.00;99.90
2721;DHT22;1368;49.484;11.112;2022-10-16T17:13:59;22.40;99.90
2721;DHT22;1368;49.484;11.112;2022-10-16T17:16:31;22.00;99.90
2721;DHT22;1368;49.484;11.112;2022-10-16T17:19:05;22.00;99.90
2721;DHT22;1368;49.484;11.112;2022-10-16T17:21:32;22.00;99.90
2721;DHT22;1368;49.484;11.112;2022-10-16T17:23:58;21.80;99.90
2721;DHT22;1368;49.484;11.112;2022-10-16T17:26:24;21.70;99.90
2721;DHT22;1368;49.484;11.112;2022-10-16T17:28:55;21.70;99.90
2721;DHT22;1368;49.484;11.112;2022-10-16T17:31:23;21.70;99.90
2721;DHT22;1368;49.484;11.112;2022-10-16T17:33:49;21.50;99.90
2721;DHT22;1368;49.484;11.112;2022-10-16T17:36:16;21.20;99.90